createdAt,value
2022-11-10T00:00:47.040Z,2.72
2022-11-10T00:02:08.588Z,2.71
2022-11-10T00:03:29.982Z,2.71
2022-11-10T00:04:51.706Z,2.71
2022-11-10T00:06:14.462Z,2.72
2022-11-10T00:07:36.011Z,2.73
2022-11-10T00:08:57.294Z,2.74
2022-11-10T00:10:18.933Z,2.73
2022-11-10T00:11:40.923Z,2.75
2022-11-10T00:13:03.192Z,2.79
2022-11-10T00:14:43.979Z,2.81
2022-11-10T00:16:23.982Z,2.81
2022-11-10T00:17:45.666Z,2.80
2022-11-10T00:19:07.005Z,2.80
2022-11-10T00:20:28.706Z,2.78
2022-11-10T00:21:49.705Z,2.78
2022-11-10T00:23:11.080Z,2.79
2022-11-10T00:24:31.942Z,2.79
2022-11-10T00:25:53.744Z,2.77
2022-11-10T00:27:15.029Z,2.75
2022-11-10T00:28:35.710Z,2.74
2022-11-10T00:29:56.895Z,2.72
2022-11-10T00:31:17.488Z,2.69
2022-11-10T00:32:38.546Z,2.65
2022-11-10T00:34:00.317Z,2.63
2022-11-10T00:35:21.218Z,2.61
2022-11-10T00:36:44.112Z,2.60
2022-11-10T00:38:05.530Z,2.61
2022-11-10T00:39:26.453Z,2.60
2022-11-10T00:40:48.142Z,2.61
2022-11-10T00:42:09.592Z,2.60
2022-11-10T00:43:31.921Z,2.60
2022-11-10T00:44:53.498Z,2.59
2022-11-10T00:46:15.393Z,2.60
2022-11-10T00:47:37.023Z,2.61
2022-11-10T00:48:58.117Z,2.63
2022-11-10T00:50:19.811Z,2.63
2022-11-10T00:51:41.131Z,2.64
2022-11-10T00:53:01.844Z,2.65
2022-11-10T00:54:23.045Z,2.66
2022-11-10T00:55:44.724Z,2.64
2022-11-10T00:57:06.164Z,2.62
2022-11-10T00:58:27.061Z,2.60
2022-11-10T00:59:48.701Z,2.61
2022-11-10T01:01:11.231Z,2.61
2022-11-10T01:02:57.532Z,2.61
2022-11-10T01:04:18.796Z,2.63
2022-11-10T01:05:40.402Z,2.63
2022-11-10T01:07:01.543Z,2.62
2022-11-10T01:08:23.593Z,2.62
2022-11-10T01:09:44.538Z,2.65
2022-11-10T01:11:11.760Z,2.65
2022-11-10T01:12:32.889Z,2.64
2022-11-10T01:13:55.677Z,2.64
2022-11-10T01:15:16.859Z,2.62
2022-11-10T01:16:38.273Z,2.63
2022-11-10T01:17:59.879Z,2.64
2022-11-10T01:19:21.354Z,2.62
2022-11-10T01:20:42.895Z,2.62
2022-11-10T01:22:04.124Z,2.62
2022-11-10T01:23:25.683Z,2.61
2022-11-10T01:24:47.277Z,2.61
2022-11-10T01:26:09.127Z,2.61
2022-11-10T01:27:30.286Z,2.61
2022-11-10T01:28:51.771Z,2.61
2022-11-10T01:30:12.994Z,2.62
2022-11-10T01:31:34.693Z,2.61
2022-11-10T01:32:56.058Z,2.62
2022-11-10T01:34:17.508Z,2.62
2022-11-10T01:35:39.180Z,2.62
2022-11-10T01:37:00.591Z,2.64
2022-11-10T01:38:22.406Z,2.65
2022-11-10T01:39:43.888Z,2.66
2022-11-10T01:41:07.811Z,2.64
2022-11-10T01:42:45.439Z,2.65
2022-11-10T01:44:15.329Z,2.63
2022-11-10T01:46:04.514Z,2.63
2022-11-10T01:47:25.729Z,2.60
2022-11-10T01:48:53.594Z,2.59
2022-11-10T01:50:15.030Z,2.57
2022-11-10T01:51:48.787Z,2.56
2022-11-10T01:53:13.909Z,2.56
2022-11-10T01:54:39.301Z,2.55
2022-11-10T01:56:02.629Z,2.55
2022-11-10T01:57:23.710Z,2.55
2022-11-10T01:58:48.561Z,2.56
2022-11-10T02:00:11.101Z,2.55
2022-11-10T02:01:32.427Z,2.54
2022-11-10T02:04:18.883Z,2.55
2022-11-10T02:05:41.950Z,2.56
2022-11-10T02:07:04.062Z,2.55
2022-11-10T02:08:26.306Z,2.55
2022-11-10T02:09:47.361Z,2.54
2022-11-10T02:11:09.274Z,2.56
2022-11-10T02:12:38.336Z,2.58
2022-11-10T02:14:00.818Z,2.59
2022-11-10T02:15:22.421Z,2.59
2022-11-10T02:18:04.572Z,2.58
2022-11-10T02:19:26.334Z,2.57
2022-11-10T02:20:47.701Z,2.56
2022-11-10T02:22:09.136Z,2.56
2022-11-10T02:23:33.760Z,2.56
2022-11-10T02:24:54.885Z,2.57
2022-11-10T02:27:40.824Z,2.56
2022-11-10T02:29:02.272Z,2.55
2022-11-10T02:30:27.452Z,2.53
2022-11-10T02:31:47.056Z,2.51
2022-11-10T02:33:08.324Z,2.50
2022-11-10T02:34:29.915Z,2.48
2022-11-10T02:35:51.524Z,2.47
2022-11-10T02:37:13.194Z,2.45
2022-11-10T02:38:34.501Z,2.43
2022-11-10T02:39:55.094Z,2.45
2022-11-10T02:41:16.081Z,2.43
2022-11-10T02:42:36.715Z,2.40
2022-11-10T02:43:58.836Z,2.38
2022-11-10T02:45:20.117Z,2.36
2022-11-10T02:46:41.524Z,2.34
2022-11-10T02:48:02.881Z,2.33
2022-11-10T02:49:24.342Z,2.35
2022-11-10T02:50:45.474Z,2.35
2022-11-10T02:52:06.910Z,2.37
2022-11-10T02:53:27.646Z,2.36
2022-11-10T02:54:48.866Z,2.36
2022-11-10T02:56:11.610Z,2.36
2022-11-10T02:57:32.741Z,2.35
2022-11-10T02:58:54.270Z,2.35
2022-11-10T03:00:16.214Z,2.36
2022-11-10T03:01:37.505Z,2.37
2022-11-10T03:03:03.291Z,2.38
2022-11-10T03:04:24.508Z,2.38
2022-11-10T03:05:46.000Z,2.38
2022-11-10T03:07:07.781Z,2.39
2022-11-10T03:08:29.215Z,2.38
2022-11-10T03:09:50.050Z,2.38
2022-11-10T03:11:11.057Z,2.39
2022-11-10T03:12:32.528Z,2.38
2022-11-10T03:14:02.551Z,2.39
2022-11-10T03:15:17.222Z,2.39
2022-11-10T03:16:37.849Z,2.39
2022-11-10T03:18:04.382Z,2.39
2022-11-10T03:19:25.683Z,2.36
2022-11-10T03:20:48.079Z,2.32
2022-11-10T03:22:09.418Z,2.31
2022-11-10T03:23:30.058Z,2.28
2022-11-10T03:24:51.138Z,2.27
2022-11-10T03:26:13.879Z,2.26
2022-11-10T03:27:34.908Z,2.24
2022-11-10T03:28:56.314Z,2.25
2022-11-10T03:30:17.832Z,2.25
2022-11-10T03:31:39.306Z,2.26
2022-11-10T03:33:00.792Z,2.25
2022-11-10T03:34:21.628Z,2.27
2022-11-10T03:35:43.031Z,2.27
2022-11-10T03:37:04.706Z,2.23
2022-11-10T03:38:26.161Z,2.23
2022-11-10T03:39:46.698Z,2.21
2022-11-10T03:41:23.331Z,2.21
2022-11-10T03:42:30.886Z,2.17
2022-11-10T03:43:52.508Z,2.16
2022-11-10T03:45:15.348Z,2.15
2022-11-10T03:46:37.240Z,2.16
2022-11-10T03:47:58.462Z,2.19
2022-11-10T03:49:20.172Z,2.21
2022-11-10T03:50:41.950Z,2.21
2022-11-10T03:52:03.151Z,2.21
2022-11-10T03:53:24.826Z,2.20
2022-11-10T03:54:46.106Z,2.22
2022-11-10T03:56:06.903Z,2.22
2022-11-10T03:57:28.145Z,2.22
2022-11-10T03:58:49.665Z,2.19
2022-11-10T04:00:11.281Z,2.18
2022-11-10T04:01:32.852Z,2.16
2022-11-10T04:02:54.820Z,2.12
2022-11-10T04:04:33.966Z,2.08
2022-11-10T04:06:13.880Z,2.08
2022-11-10T04:07:53.093Z,2.07
2022-11-10T04:09:14.153Z,2.06
2022-11-10T04:10:35.812Z,2.05
2022-11-10T04:12:18.443Z,2.06
2022-11-10T04:13:56.767Z,2.05
2022-11-10T04:15:37.014Z,2.05
2022-11-10T04:16:58.631Z,2.01
2022-11-10T04:18:25.893Z,1.97
2022-11-10T04:19:47.068Z,1.96
2022-11-10T04:21:08.653Z,1.97
2022-11-10T04:22:48.020Z,1.95
2022-11-10T04:24:08.978Z,1.97
2022-11-10T04:25:32.230Z,1.98
2022-11-10T04:26:53.328Z,1.97
2022-11-10T04:28:14.706Z,1.97
2022-11-10T04:29:36.162Z,1.96
2022-11-10T04:30:56.754Z,1.96
2022-11-10T04:32:18.046Z,1.96
2022-11-10T04:33:40.725Z,1.94
2022-11-10T04:35:01.707Z,1.94
2022-11-10T04:36:25.726Z,1.93
2022-11-10T04:37:47.115Z,1.94
2022-11-10T04:39:09.391Z,1.96
2022-11-10T04:40:30.840Z,1.97
2022-11-10T04:41:52.172Z,1.97
2022-11-10T04:43:12.931Z,2.00
2022-11-10T04:44:34.167Z,2.03
2022-11-10T04:45:56.411Z,2.02
2022-11-10T04:47:17.644Z,2.02
2022-11-10T04:48:38.987Z,2.03
2022-11-10T04:50:00.597Z,2.06
2022-11-10T04:51:29.181Z,2.07
2022-11-10T04:52:50.437Z,2.10
2022-11-10T04:54:11.513Z,2.12
2022-11-10T04:55:32.680Z,2.15
2022-11-10T04:56:54.094Z,2.12
2022-11-10T04:58:15.711Z,2.10
2022-11-10T04:59:37.179Z,2.10
2022-11-10T05:00:57.993Z,2.10
2022-11-10T05:02:18.967Z,2.12
2022-11-10T05:03:41.069Z,2.07
2022-11-10T05:05:02.857Z,2.07
2022-11-10T05:06:24.011Z,2.06
2022-11-10T05:07:49.377Z,2.07
2022-11-10T05:09:11.054Z,2.07
2022-11-10T05:10:33.161Z,2.09
2022-11-10T05:11:54.747Z,2.10
2022-11-10T05:13:15.354Z,2.13
2022-11-10T05:14:36.465Z,2.15
2022-11-10T05:15:58.018Z,2.13
2022-11-10T05:17:19.389Z,2.13
2022-11-10T05:18:41.244Z,2.13
2022-11-10T05:20:03.020Z,2.16
2022-11-10T05:21:24.164Z,2.18
2022-11-10T05:22:49.219Z,2.19
2022-11-10T05:24:10.075Z,2.21
2022-11-10T05:25:31.583Z,2.22
2022-11-10T05:26:53.078Z,2.22
2022-11-10T05:28:15.830Z,2.23
2022-11-10T05:29:37.123Z,2.26
2022-11-10T05:30:58.588Z,2.27
2022-11-10T05:32:20.152Z,2.28
2022-11-10T05:33:41.756Z,2.30
2022-11-10T05:35:03.478Z,2.33
2022-11-10T05:36:24.760Z,2.37
2022-11-10T05:37:46.332Z,2.41
2022-11-10T05:39:08.184Z,2.45
2022-11-10T05:40:29.493Z,2.46
2022-11-10T05:41:50.846Z,2.50
2022-11-10T05:43:12.974Z,2.53
2022-11-10T05:44:34.421Z,2.54
2022-11-10T05:45:55.729Z,2.56
2022-11-10T05:47:17.177Z,2.56
2022-11-10T05:48:38.706Z,2.55
2022-11-10T05:49:59.270Z,2.55
2022-11-10T05:51:20.509Z,2.56
2022-11-10T05:52:50.303Z,2.52
2022-11-10T05:54:11.975Z,2.50
2022-11-10T05:55:33.402Z,2.44
2022-11-10T05:56:55.115Z,2.42
2022-11-10T05:58:16.326Z,2.41
2022-11-10T05:59:37.773Z,2.41
2022-11-10T06:00:59.362Z,2.42
2022-11-10T06:02:20.662Z,2.42
2022-11-10T06:03:42.447Z,2.42
2022-11-10T06:05:04.649Z,2.42
2022-11-10T06:06:25.824Z,2.43
2022-11-10T06:07:46.909Z,2.43
2022-11-10T06:09:08.475Z,2.43
2022-11-10T06:10:30.581Z,2.43
2022-11-10T06:11:52.096Z,2.41
2022-11-10T06:13:12.993Z,2.40
2022-11-10T06:14:34.426Z,2.41
2022-11-10T06:15:55.246Z,2.39
2022-11-10T06:17:16.336Z,2.39
2022-11-10T06:18:38.019Z,2.36
2022-11-10T06:19:59.088Z,2.36
2022-11-10T06:21:20.685Z,2.38
2022-11-10T06:22:41.980Z,2.41
2022-11-10T06:24:03.591Z,2.46
2022-11-10T06:25:25.120Z,2.52
2022-11-10T06:26:46.255Z,2.58
2022-11-10T06:28:08.812Z,2.64
2022-11-10T06:29:30.214Z,2.68
2022-11-10T06:30:51.715Z,2.71
2022-11-10T06:32:13.021Z,2.72
2022-11-10T06:33:34.480Z,2.72
2022-11-10T06:34:59.385Z,2.68
2022-11-10T06:36:19.136Z,2.63
2022-11-10T06:37:40.771Z,2.60
2022-11-10T06:39:02.147Z,2.61
2022-11-10T06:40:23.664Z,2.61
2022-11-10T06:41:44.365Z,2.64
2022-11-10T06:43:05.624Z,2.67
2022-11-10T06:44:27.086Z,2.68
2022-11-10T06:45:48.041Z,2.71
2022-11-10T06:47:09.058Z,2.74
2022-11-10T06:48:30.317Z,2.79
2022-11-10T06:49:52.093Z,2.85
2022-11-10T06:51:13.496Z,2.89
2022-11-10T06:52:34.953Z,2.91
2022-11-10T06:53:56.490Z,2.94
2022-11-10T06:55:17.756Z,2.96
2022-11-10T06:56:38.984Z,2.99
2022-11-10T06:58:00.487Z,3.01
2022-11-10T06:59:21.344Z,3.04
2022-11-10T07:00:42.940Z,3.04
2022-11-10T07:02:04.763Z,3.03
2022-11-10T07:03:25.833Z,3.00
2022-11-10T07:04:49.309Z,2.99
2022-11-10T07:06:11.530Z,3.00
2022-11-10T07:07:32.921Z,3.00
2022-11-10T07:08:54.238Z,3.00
2022-11-10T07:10:15.934Z,3.02
2022-11-10T07:11:37.420Z,3.05
2022-11-10T07:12:59.618Z,3.06
2022-11-10T07:14:20.987Z,3.08
2022-11-10T07:15:42.925Z,3.09
2022-11-10T07:17:04.224Z,3.11
2022-11-10T07:18:25.737Z,3.14
2022-11-10T07:19:47.205Z,3.16
2022-11-10T07:21:08.410Z,3.19
2022-11-10T07:22:29.856Z,3.25
2022-11-10T07:23:51.497Z,3.30
2022-11-10T07:25:13.231Z,3.35
2022-11-10T07:26:34.563Z,3.40
2022-11-10T07:27:56.156Z,3.46
2022-11-10T07:29:17.324Z,3.51
2022-11-10T07:30:40.030Z,3.54
2022-11-10T07:32:00.950Z,3.58
2022-11-10T07:33:22.596Z,3.60
2022-11-10T07:34:43.761Z,3.63
2022-11-10T07:36:06.700Z,3.69
2022-11-10T07:37:27.767Z,3.73
2022-11-10T07:38:48.485Z,3.78
2022-11-10T07:40:10.658Z,3.83
2022-11-10T07:41:31.987Z,3.83
2022-11-10T07:42:53.434Z,3.86
2022-11-10T07:44:14.972Z,3.89
2022-11-10T07:45:35.977Z,3.94
2022-11-10T07:46:57.927Z,3.99
2022-11-10T07:48:19.589Z,4.01
2022-11-10T07:49:41.136Z,4.03
2022-11-10T07:51:02.787Z,4.05
2022-11-10T07:52:24.136Z,4.09
2022-11-10T07:53:45.580Z,4.14
2022-11-10T07:55:06.518Z,4.19
2022-11-10T07:56:28.033Z,4.23
2022-11-10T07:57:49.787Z,4.24
2022-11-10T07:59:11.349Z,4.28
2022-11-10T08:00:33.485Z,4.31
2022-11-10T08:01:54.955Z,4.35
2022-11-10T08:03:18.835Z,4.39
2022-11-10T08:04:40.130Z,4.43
2022-11-10T08:06:01.733Z,4.47
2022-11-10T08:07:23.320Z,4.51
2022-11-10T08:08:47.702Z,4.52
2022-11-10T08:10:09.458Z,4.54
2022-11-10T08:11:30.835Z,4.56
2022-11-10T08:12:57.295Z,4.61
2022-11-10T08:14:18.659Z,4.65
2022-11-10T08:15:40.938Z,4.67
2022-11-10T08:17:02.163Z,4.71
2022-11-10T08:18:24.054Z,4.76
2022-11-10T08:19:45.176Z,4.78
2022-11-10T08:21:06.761Z,4.80
2022-11-10T08:22:28.360Z,4.78
2022-11-10T08:23:49.698Z,4.77
2022-11-10T08:25:10.534Z,4.76
2022-11-10T08:26:32.428Z,4.75
2022-11-10T08:27:59.167Z,4.76
2022-11-10T08:29:20.678Z,4.77
2022-11-10T08:30:44.009Z,4.81
2022-11-10T08:32:05.372Z,4.85
2022-11-10T08:33:26.771Z,4.89
2022-11-10T08:34:48.239Z,4.91
2022-11-10T08:36:09.988Z,4.95
2022-11-10T08:37:31.273Z,5.00
2022-11-10T08:38:52.883Z,5.04
2022-11-10T08:40:15.169Z,5.11
2022-11-10T08:41:36.208Z,5.15
2022-11-10T08:42:59.466Z,5.19
2022-11-10T08:44:21.303Z,5.22
2022-11-10T08:45:44.131Z,5.25
2022-11-10T08:47:05.278Z,5.28
2022-11-10T08:48:26.602Z,5.32
2022-11-10T08:49:47.745Z,5.36
2022-11-10T08:51:09.141Z,5.41
2022-11-10T08:52:30.864Z,5.44
2022-11-10T08:53:51.873Z,5.44
2022-11-10T08:55:13.521Z,5.48
2022-11-10T08:56:35.415Z,5.52
2022-11-10T08:58:02.022Z,5.58
2022-11-10T08:59:23.621Z,5.61
2022-11-10T09:00:45.511Z,5.66
2022-11-10T09:02:09.853Z,5.69
2022-11-10T09:03:31.305Z,5.71
2022-11-10T09:04:52.965Z,5.72
2022-11-10T09:06:14.487Z,5.75
2022-11-10T09:07:49.712Z,5.77
2022-11-10T09:09:11.079Z,5.81
2022-11-10T09:10:35.105Z,5.84
2022-11-10T09:11:56.396Z,5.87
2022-11-10T09:13:18.443Z,5.91
2022-11-10T09:14:39.941Z,5.93
2022-11-10T09:16:01.809Z,5.95
2022-11-10T09:17:23.319Z,5.97
2022-11-10T09:18:45.011Z,5.97
2022-11-10T09:20:08.839Z,5.95
2022-11-10T09:21:30.244Z,5.94
2022-11-10T09:22:51.442Z,5.97
2022-11-10T09:24:12.181Z,5.96
2022-11-10T09:25:33.896Z,5.95
2022-11-10T09:26:55.023Z,5.95
2022-11-10T09:28:16.941Z,5.94
2022-11-10T09:29:38.303Z,5.98
2022-11-10T09:31:00.148Z,5.98
2022-11-10T09:32:21.634Z,6.03
2022-11-10T09:33:43.379Z,6.06
2022-11-10T09:35:05.416Z,6.08
2022-11-10T09:36:26.845Z,6.11
2022-11-10T09:37:48.847Z,6.13
2022-11-10T09:39:09.944Z,6.15
2022-11-10T09:40:37.890Z,6.18
2022-11-10T09:41:59.269Z,6.21
2022-11-10T09:43:24.485Z,6.24
2022-11-10T09:44:51.119Z,6.28
2022-11-10T09:46:27.395Z,6.29
2022-11-10T09:48:07.197Z,6.32
2022-11-10T09:49:40.903Z,6.34
2022-11-10T09:51:21.044Z,6.37
2022-11-10T09:52:43.918Z,6.41
2022-11-10T09:54:11.360Z,6.43
2022-11-10T09:55:51.111Z,6.44
2022-11-10T09:57:15.823Z,6.47
2022-11-10T09:58:42.796Z,6.50
2022-11-10T10:00:04.912Z,6.53
2022-11-10T10:01:48.075Z,6.55
2022-11-10T10:03:13.030Z,6.57
2022-11-10T10:04:46.605Z,6.59
2022-11-10T10:06:12.974Z,6.62
2022-11-10T10:07:40.741Z,6.64
2022-11-10T10:09:24.809Z,6.68
2022-11-10T10:10:55.517Z,6.70
2022-11-10T10:12:38.099Z,6.74
2022-11-10T10:14:08.821Z,6.77
2022-11-10T10:15:39.311Z,6.78
2022-11-10T10:17:18.922Z,6.81
2022-11-10T10:19:20.260Z,6.83
2022-11-10T10:20:48.073Z,6.85
2022-11-10T10:22:27.578Z,6.84
2022-11-10T10:24:09.226Z,6.85
2022-11-10T10:25:23.370Z,6.85
2022-11-10T10:26:51.603Z,6.88
2022-11-10T10:28:22.532Z,6.89
2022-11-10T10:29:46.482Z,6.93
2022-11-10T10:31:14.207Z,6.95
2022-11-10T10:32:35.443Z,6.96
2022-11-10T10:33:56.558Z,6.97
2022-11-10T10:35:18.998Z,7.00
2022-11-10T10:36:40.409Z,7.03
2022-11-10T10:38:04.108Z,7.05
2022-11-10T10:39:37.762Z,7.08
2022-11-10T10:41:03.498Z,7.10
2022-11-10T10:42:28.179Z,7.12
2022-11-10T10:43:50.846Z,7.16
2022-11-10T10:45:26.703Z,7.19
2022-11-10T10:46:52.979Z,7.22
2022-11-10T10:48:28.007Z,7.24
2022-11-10T10:49:49.158Z,7.26
2022-11-10T10:51:11.209Z,7.27
2022-11-10T10:52:32.376Z,7.28
2022-11-10T10:53:53.876Z,7.30
2022-11-10T10:55:14.506Z,7.30
2022-11-10T10:56:37.535Z,7.33
2022-11-10T10:58:02.120Z,7.33
2022-11-10T10:59:24.288Z,7.33
2022-11-10T11:00:51.496Z,7.34
2022-11-10T11:02:31.501Z,7.36
2022-11-10T11:03:53.042Z,7.38
2022-11-10T11:05:17.350Z,7.38
2022-11-10T11:06:38.799Z,7.39
2022-11-10T11:08:02.052Z,7.41
2022-11-10T11:09:26.212Z,7.42
2022-11-10T11:10:47.837Z,7.42
2022-11-10T11:12:12.302Z,7.43
2022-11-10T11:13:33.612Z,7.43
2022-11-10T11:15:14.639Z,7.44
2022-11-10T11:16:52.333Z,7.43
2022-11-10T11:18:16.709Z,7.43
2022-11-10T11:19:39.254Z,7.41
2022-11-10T11:21:10.154Z,7.38
2022-11-10T11:22:52.770Z,7.37
2022-11-10T11:24:30.075Z,7.37
2022-11-10T11:25:53.427Z,7.36
2022-11-10T11:27:27.490Z,7.36
2022-11-10T11:28:55.377Z,7.36
2022-11-10T11:30:19.109Z,7.36
2022-11-10T11:32:09.431Z,7.38
2022-11-10T11:33:40.055Z,7.39
2022-11-10T11:35:19.531Z,7.39
2022-11-10T11:36:50.879Z,7.38
2022-11-10T11:38:18.382Z,7.38
2022-11-10T11:40:08.684Z,7.38
2022-11-10T11:45:02.499Z,7.40
2022-11-10T11:46:48.923Z,7.41
2022-11-10T11:48:22.336Z,7.41
2022-11-10T11:50:04.839Z,7.39
2022-11-10T11:51:40.870Z,7.38
2022-11-10T11:53:25.064Z,7.36
2022-11-10T11:55:07.081Z,7.35
2022-11-10T11:56:34.437Z,7.35
2022-11-10T11:58:22.080Z,7.35
2022-11-10T11:59:47.105Z,7.36
2022-11-10T12:01:34.506Z,7.36
2022-11-10T12:03:15.616Z,7.36
2022-11-10T12:04:55.386Z,7.36
2022-11-10T12:07:59.871Z,7.45
2022-11-10T12:10:53.628Z,7.45
2022-11-10T12:12:37.941Z,7.32
2022-11-10T12:14:02.570Z,7.30
2022-11-10T12:15:27.740Z,7.29
2022-11-10T12:16:55.440Z,7.28
2022-11-10T12:18:29.644Z,7.28
2022-11-10T12:20:10.751Z,7.28
2022-11-10T12:21:53.716Z,7.27
2022-11-10T12:23:23.972Z,7.28
2022-11-10T12:24:57.798Z,7.26
2022-11-10T12:26:28.643Z,7.24
2022-11-10T12:27:56.139Z,7.23
2022-11-10T12:29:35.575Z,7.23
2022-11-10T12:31:01.998Z,7.21
2022-11-10T12:32:32.946Z,7.21
2022-11-10T12:34:03.304Z,7.19
2022-11-10T12:35:28.173Z,7.19
2022-11-10T12:36:51.332Z,7.18
2022-11-10T12:38:16.025Z,7.18
2022-11-10T12:39:40.937Z,7.17
2022-11-10T12:41:05.655Z,7.15
2022-11-10T12:42:29.486Z,7.13
2022-11-10T12:44:06.098Z,7.11
2022-11-10T12:45:31.665Z,7.10
2022-11-10T12:46:56.344Z,7.08
2022-11-10T12:48:18.954Z,7.09
2022-11-10T12:49:44.092Z,7.08
2022-11-10T12:51:09.494Z,7.08
2022-11-10T12:52:34.581Z,7.10
2022-11-10T12:53:55.967Z,7.11
2022-11-10T12:55:19.102Z,7.09
2022-11-10T12:56:44.230Z,7.08
2022-11-10T12:58:06.808Z,7.08
2022-11-10T12:59:33.870Z,7.05
2022-11-10T13:01:07.688Z,7.06
2022-11-10T13:02:32.600Z,7.05
2022-11-10T13:03:57.373Z,7.05
2022-11-10T13:05:28.275Z,7.03
2022-11-10T13:06:53.329Z,7.02
2022-11-10T13:08:29.907Z,7.00
2022-11-10T13:09:50.877Z,6.99
2022-11-10T13:11:13.263Z,6.95
2022-11-10T13:12:34.633Z,6.92
2022-11-10T13:14:01.849Z,6.88
2022-11-10T13:15:41.661Z,6.86
2022-11-10T13:17:02.831Z,6.84
2022-11-10T13:18:33.942Z,6.81
2022-11-10T13:19:58.950Z,6.80
2022-11-10T13:21:22.853Z,6.77
2022-11-10T13:22:44.373Z,6.73
2022-11-10T13:24:26.694Z,6.69
2022-11-10T13:26:06.441Z,6.66
2022-11-10T13:27:46.500Z,6.63
2022-11-10T13:29:40.458Z,6.60
2022-11-10T13:31:05.316Z,6.58
2022-11-10T13:32:31.739Z,6.55
2022-11-10T13:34:07.803Z,6.54
2022-11-10T13:35:32.521Z,6.54
2022-11-10T13:36:54.125Z,6.54
2022-11-10T13:38:38.490Z,6.54
2022-11-10T13:40:21.102Z,6.54
2022-11-10T13:41:47.140Z,6.54
2022-11-10T13:43:20.830Z,6.55
2022-11-10T13:44:43.086Z,6.55
2022-11-10T13:46:05.654Z,6.55
2022-11-10T13:47:48.454Z,6.55
2022-11-10T13:49:16.246Z,6.56
2022-11-10T13:50:56.342Z,6.55
2022-11-10T13:52:25.761Z,6.54
2022-11-10T13:54:16.267Z,6.54
2022-11-10T13:55:52.903Z,6.54
2022-11-10T13:57:29.903Z,6.52
2022-11-10T13:58:51.495Z,6.52
2022-11-10T14:00:19.839Z,6.50
2022-11-10T14:01:41.423Z,6.50
2022-11-10T14:03:05.634Z,6.49
2022-11-10T14:04:44.636Z,6.48
2022-11-10T14:06:09.636Z,6.49
2022-11-10T14:07:43.531Z,6.48
2022-11-10T14:09:37.369Z,6.50
2022-11-10T14:11:02.413Z,6.49
2022-11-10T14:12:39.204Z,6.48
2022-11-10T14:14:06.524Z,6.47
2022-11-10T14:15:45.783Z,6.46
2022-11-10T14:17:13.688Z,6.46
2022-11-10T14:18:47.207Z,6.46
2022-11-10T14:20:31.876Z,6.47
2022-11-10T14:21:58.763Z,6.47
2022-11-10T14:23:26.563Z,6.47
2022-11-10T14:24:57.154Z,6.45
2022-11-10T14:26:34.057Z,6.45
2022-11-10T14:27:58.183Z,6.44
2022-11-10T14:29:30.559Z,6.44
2022-11-10T14:30:53.011Z,6.44
2022-11-10T14:32:23.711Z,6.43
2022-11-10T14:33:57.081Z,6.44
2022-11-10T14:35:21.969Z,6.43
2022-11-10T14:37:00.853Z,6.41
2022-11-10T14:38:25.106Z,6.41
2022-11-10T14:39:47.089Z,6.40
2022-11-10T14:41:18.267Z,6.41
2022-11-10T14:42:39.265Z,6.41
2022-11-10T14:44:04.147Z,6.41
2022-11-10T14:45:27.316Z,6.41
2022-11-10T14:46:48.320Z,6.42
2022-11-10T14:48:18.911Z,6.42
2022-11-10T14:49:40.680Z,6.42
2022-11-10T14:51:08.554Z,6.42
2022-11-10T14:52:29.578Z,6.43
2022-11-10T14:53:53.947Z,6.42
2022-11-10T14:55:30.630Z,6.43
2022-11-10T14:56:53.364Z,6.43
2022-11-10T14:58:17.775Z,6.44
2022-11-10T14:59:39.645Z,6.43
2022-11-10T15:01:03.503Z,6.44
2022-11-10T15:02:25.193Z,6.43
2022-11-10T15:03:46.603Z,6.44
2022-11-10T15:05:11.662Z,6.44
2022-11-10T15:06:34.497Z,6.44
2022-11-10T15:07:57.530Z,6.44
2022-11-10T15:09:24.931Z,6.45
2022-11-10T15:10:48.921Z,6.44
2022-11-10T15:12:19.359Z,6.44
2022-11-10T15:13:40.626Z,6.44
2022-11-10T15:15:01.854Z,6.41
2022-11-10T15:16:28.230Z,6.39
2022-11-10T15:17:51.335Z,6.35
2022-11-10T15:19:33.197Z,6.34
2022-11-10T15:21:02.763Z,6.33
2022-11-10T15:22:29.698Z,6.33
2022-11-10T15:23:57.223Z,6.32
2022-11-10T15:25:21.105Z,6.32
2022-11-10T15:26:42.926Z,6.32
2022-11-10T15:28:13.809Z,6.34
2022-11-10T15:29:50.969Z,6.34
2022-11-10T15:31:15.586Z,6.35
2022-11-10T15:32:45.198Z,6.34
2022-11-10T15:34:06.563Z,6.35
2022-11-10T15:35:30.918Z,6.36
2022-11-10T15:36:56.048Z,6.36
2022-11-10T15:38:24.589Z,6.37
2022-11-10T15:39:47.053Z,6.39
2022-11-10T15:41:14.130Z,6.40
2022-11-10T15:42:35.548Z,6.40
2022-11-10T15:43:57.049Z,6.39
2022-11-10T15:45:18.665Z,6.41
2022-11-10T15:46:40.240Z,6.42
2022-11-10T15:48:01.469Z,6.41
2022-11-10T15:49:28.954Z,6.43
2022-11-10T15:50:53.315Z,6.45
2022-11-10T15:52:17.996Z,6.45
2022-11-10T15:53:42.392Z,6.45
2022-11-10T15:55:04.248Z,6.46
2022-11-10T16:01:16.929Z,6.44
2022-11-10T16:02:38.928Z,6.42
2022-11-10T16:04:00.221Z,6.40
2022-11-10T16:05:21.952Z,6.40
2022-11-10T16:06:43.485Z,6.41
2022-11-10T16:08:07.364Z,6.41
2022-11-10T16:09:28.630Z,6.41
2022-11-10T16:10:53.704Z,6.44
2022-11-10T16:12:18.645Z,6.44
2022-11-10T16:13:40.093Z,6.44
2022-11-10T16:15:01.943Z,6.44
2022-11-10T16:16:23.640Z,6.45
2022-11-10T16:17:45.047Z,6.46
2022-11-10T16:19:06.350Z,6.46
2022-11-10T16:20:27.920Z,6.47
2022-11-10T16:21:49.216Z,6.47
2022-11-10T16:23:10.738Z,6.48
2022-11-10T16:24:31.521Z,6.47
2022-11-10T16:25:55.305Z,6.48
2022-11-10T16:27:17.030Z,6.45
2022-11-10T16:28:38.636Z,6.43
2022-11-10T16:29:59.846Z,6.44
2022-11-10T16:31:23.493Z,6.44
2022-11-10T16:32:44.591Z,6.43
2022-11-10T16:34:07.775Z,6.41
2022-11-10T16:35:29.164Z,6.39
2022-11-10T16:36:50.887Z,6.39
2022-11-10T16:38:18.664Z,6.37
2022-11-10T16:39:39.747Z,6.39
2022-11-10T16:41:01.679Z,6.39
2022-11-10T16:42:23.262Z,6.40
2022-11-10T16:43:44.863Z,6.38
2022-11-10T16:45:09.942Z,6.36
2022-11-10T16:46:31.512Z,6.35
2022-11-10T16:47:53.214Z,6.35
2022-11-10T16:49:27.192Z,6.36
2022-11-10T16:50:52.160Z,6.36
2022-11-10T16:52:18.282Z,6.36
2022-11-10T16:53:40.850Z,6.39
2022-11-10T16:55:02.172Z,6.37
2022-11-10T16:56:23.751Z,6.37
2022-11-10T16:57:44.979Z,6.37
2022-11-10T16:59:06.382Z,6.37
2022-11-10T17:00:28.164Z,6.39
2022-11-10T17:01:51.597Z,6.38
2022-11-10T17:03:25.294Z,6.38
2022-11-10T17:04:46.680Z,6.40
2022-11-10T17:06:12.758Z,6.37
2022-11-10T17:07:33.911Z,6.39
2022-11-10T17:08:58.691Z,6.39
2022-11-10T17:10:21.178Z,6.39
2022-11-10T17:11:42.887Z,6.39
2022-11-10T17:13:04.128Z,6.38
2022-11-10T17:14:25.773Z,6.40
2022-11-10T17:15:46.718Z,6.40
2022-11-10T17:17:14.511Z,6.41
2022-11-10T17:18:36.125Z,6.38
2022-11-10T17:19:58.780Z,6.36
2022-11-10T17:21:21.228Z,6.36
2022-11-10T17:22:42.717Z,6.37
2022-11-10T17:24:04.825Z,6.37
2022-11-10T17:25:29.533Z,6.38
2022-11-10T17:26:51.134Z,6.37
2022-11-10T17:28:14.623Z,6.37
2022-11-10T17:29:36.594Z,6.37
2022-11-10T17:30:57.997Z,6.37
2022-11-10T17:32:27.974Z,6.39
2022-11-10T17:33:42.337Z,6.39
2022-11-10T17:35:04.442Z,6.39
2022-11-10T17:36:26.107Z,6.40
2022-11-10T17:37:54.565Z,6.41
2022-11-10T17:39:16.618Z,6.42
2022-11-10T17:40:40.092Z,6.42
2022-11-10T17:42:01.757Z,6.41
2022-11-10T17:43:23.399Z,6.41
2022-11-10T17:44:45.117Z,6.42
2022-11-10T17:46:06.743Z,6.42
2022-11-10T17:47:28.065Z,6.43
2022-11-10T17:48:49.677Z,6.43
2022-11-10T17:50:11.261Z,6.43
2022-11-10T17:51:33.838Z,6.45
2022-11-10T17:52:55.215Z,6.45
2022-11-10T17:54:17.397Z,6.46
2022-11-10T17:55:38.814Z,6.46
2022-11-10T17:57:00.412Z,6.45
2022-11-10T17:58:21.052Z,6.45
2022-11-10T17:59:42.221Z,6.45
2022-11-10T18:01:13.267Z,6.42
2022-11-10T18:02:34.439Z,6.41
2022-11-10T18:03:55.584Z,6.40
2022-11-10T18:05:17.907Z,6.37
2022-11-10T18:06:39.276Z,6.37
2022-11-10T18:08:01.073Z,6.36
2022-11-10T18:09:23.861Z,6.37
2022-11-10T18:10:50.876Z,6.36
2022-11-10T18:12:12.777Z,6.38
2022-11-10T18:13:34.197Z,6.40
2022-11-10T18:14:55.956Z,6.40
2022-11-10T18:16:17.633Z,6.41
2022-11-10T18:17:39.366Z,6.42
2022-11-10T18:19:00.911Z,6.42
2022-11-10T18:20:22.650Z,6.43
2022-11-10T18:21:44.368Z,6.44
2022-11-10T18:23:07.660Z,6.44
2022-11-10T18:24:29.349Z,6.45
2022-11-10T18:25:50.895Z,6.46
2022-11-10T18:27:12.962Z,6.45
2022-11-10T18:28:35.694Z,6.46
2022-11-10T18:29:56.908Z,6.46
2022-11-10T18:31:18.411Z,6.47
2022-11-10T18:32:39.682Z,6.48
2022-11-10T18:34:01.118Z,6.49
2022-11-10T18:35:22.648Z,6.49
2022-11-10T18:36:43.982Z,6.49
2022-11-10T18:38:06.597Z,6.49
2022-11-10T18:39:28.001Z,6.50
2022-11-10T18:40:49.007Z,6.50
2022-11-10T18:42:10.906Z,6.50
2022-11-10T18:43:31.985Z,6.51
2022-11-10T18:44:54.801Z,6.50
2022-11-10T18:46:16.756Z,6.51
2022-11-10T18:47:38.243Z,6.49
2022-11-10T18:48:59.436Z,6.48
2022-11-10T18:50:21.150Z,6.47
2022-11-10T18:51:42.837Z,6.48
2022-11-10T18:53:04.388Z,6.48
2022-11-10T18:54:26.718Z,6.49
2022-11-10T18:55:54.804Z,6.48
2022-11-10T18:57:16.358Z,6.49
2022-11-10T18:58:38.905Z,6.48
2022-11-10T18:59:59.938Z,6.49
2022-11-10T19:01:22.208Z,6.50